createdAt,value
2022-08-26T00:02:11.613Z,98400.72
2022-08-26T00:04:41.521Z,98403.22
2022-08-26T00:07:10.503Z,98398.84
2022-08-26T00:09:40.272Z,98396.38
2022-08-26T00:12:09.320Z,98403.81
2022-08-26T00:14:40.862Z,98404.44
2022-08-26T00:17:09.082Z,98399.72
2022-08-26T00:19:37.217Z,98395.63
2022-08-26T00:22:07.280Z,98399.84
2022-08-26T00:24:35.047Z,98400.94
2022-08-26T00:27:02.829Z,98403.13
2022-08-26T00:29:32.008Z,98396.88
2022-08-26T00:32:04.094Z,98398.78
2022-08-26T00:34:32.024Z,98396.78
2022-08-26T00:36:59.832Z,98400.59
2022-08-26T00:39:28.988Z,98399.28
2022-08-26T00:41:57.198Z,98401.00
2022-08-26T00:44:25.208Z,98396.72
2022-08-26T00:46:58.775Z,98398.81
2022-08-26T00:49:36.138Z,98396.78
2022-08-26T00:52:09.865Z,98394.09
2022-08-26T00:54:46.838Z,98408.97
2022-08-26T00:57:20.931Z,98413.25
2022-08-26T00:59:54.761Z,98411.19
2022-08-26T01:02:22.644Z,98404.53
2022-08-26T01:04:55.725Z,98401.78
2022-08-26T01:07:27.518Z,98414.25
2022-08-26T01:10:03.849Z,98403.75
2022-08-26T01:12:38.870Z,98404.16
2022-08-26T01:15:09.721Z,98404.88
2022-08-26T01:17:38.938Z,98407.22
2022-08-26T01:20:13.536Z,98403.47
2022-08-26T01:22:54.220Z,98409.06
2022-08-26T01:25:24.248Z,98400.91
2022-08-26T01:27:53.815Z,98396.16
2022-08-26T01:30:26.565Z,98396.88
2022-08-26T01:32:59.267Z,98400.16
2022-08-26T01:35:27.257Z,98397.44
2022-08-26T01:37:57.420Z,98396.06
2022-08-26T01:40:32.580Z,98398.28
2022-08-26T01:43:03.275Z,98399.59
2022-08-26T01:45:34.332Z,98387.50
2022-08-26T01:48:08.939Z,98389.78
2022-08-26T01:50:39.228Z,98398.44
2022-08-26T01:53:13.564Z,98394.72
2022-08-26T01:55:44.392Z,98395.69
2022-08-26T01:58:17.558Z,98399.03
2022-08-26T02:00:46.966Z,98394.81
2022-08-26T02:03:17.710Z,98400.53
2022-08-26T02:05:47.458Z,98405.59
2022-08-26T02:08:25.008Z,98399.91
2022-08-26T02:10:54.906Z,98399.38
2022-08-26T02:13:26.566Z,98411.56
2022-08-26T02:15:56.111Z,98410.91
2022-08-26T02:18:26.213Z,98409.00
2022-08-26T02:20:55.840Z,98407.34
2022-08-26T02:23:25.986Z,98408.03
2022-08-26T02:26:01.018Z,98410.22
2022-08-26T02:28:31.996Z,98402.06
2022-08-26T02:31:00.156Z,98407.78
2022-08-26T02:33:30.693Z,98410.50
2022-08-26T02:35:58.465Z,98402.66
2022-08-26T02:38:29.322Z,98402.69
2022-08-26T02:40:57.434Z,98397.34
2022-08-26T02:43:31.536Z,98402.25
2022-08-26T02:46:02.421Z,98406.41
2022-08-26T02:48:31.640Z,98400.00
2022-08-26T02:51:01.628Z,98399.06
2022-08-26T02:53:31.715Z,98401.28
2022-08-26T02:55:59.988Z,98398.25
2022-08-26T02:58:27.848Z,98402.16
2022-08-26T03:00:55.646Z,98399.50
2022-08-26T03:03:23.878Z,98396.22
2022-08-26T03:05:51.649Z,98396.38
2022-08-26T03:08:19.523Z,98385.88
2022-08-26T03:10:49.404Z,98392.53
2022-08-26T03:13:18.129Z,98386.03
2022-08-26T03:15:47.672Z,98388.53
2022-08-26T03:18:16.125Z,98385.41
2022-08-26T03:20:44.023Z,98381.63
2022-08-26T03:23:12.407Z,98387.13
2022-08-26T03:25:41.006Z,98380.72
2022-08-26T03:28:10.275Z,98384.16
2022-08-26T03:30:44.633Z,98375.56
2022-08-26T03:33:14.366Z,98387.28
2022-08-26T03:35:44.490Z,98388.41
2022-08-26T03:38:12.822Z,98386.66
2022-08-26T03:40:42.455Z,98381.78
2022-08-26T03:43:13.304Z,98385.63
2022-08-26T03:45:41.373Z,98386.47
2022-08-26T03:48:11.290Z,98385.50
2022-08-26T03:50:40.047Z,98383.34
2022-08-26T03:53:12.947Z,98386.22
2022-08-26T03:55:42.441Z,98389.22
2022-08-26T03:58:12.489Z,98389.06
2022-08-26T04:00:40.379Z,98383.34
2022-08-26T04:03:09.963Z,98387.84
2022-08-26T04:05:38.374Z,98394.16
2022-08-26T04:08:07.102Z,98385.97
2022-08-26T04:10:35.163Z,98386.31
2022-08-26T04:13:02.988Z,98383.50
2022-08-26T04:15:33.328Z,98392.41
2022-08-26T04:18:01.678Z,98387.06
2022-08-26T04:20:29.488Z,98389.22
2022-08-26T04:22:57.346Z,98389.44
2022-08-26T04:25:25.373Z,98389.34
2022-08-26T04:27:53.485Z,98393.09
2022-08-26T04:30:21.856Z,98389.38
2022-08-26T04:32:51.249Z,98394.09
2022-08-26T04:35:22.776Z,98389.81
2022-08-26T04:37:53.924Z,98390.41
2022-08-26T04:40:21.787Z,98384.91
2022-08-26T04:42:50.256Z,98385.13
2022-08-26T04:45:18.855Z,98379.63
2022-08-26T04:47:56.375Z,98385.66
2022-08-26T04:50:25.779Z,98387.13
2022-08-26T04:52:55.244Z,98390.69
2022-08-26T04:55:37.340Z,98390.88
2022-08-26T04:58:08.752Z,98398.78
2022-08-26T05:00:39.028Z,98396.16
2022-08-26T05:03:10.255Z,98390.16
2022-08-26T05:05:41.046Z,98398.22
2022-08-26T05:08:09.918Z,98400.69
2022-08-26T05:10:43.604Z,98402.38
2022-08-26T05:13:15.078Z,98399.44
2022-08-26T05:15:44.011Z,98392.38
2022-08-26T05:18:14.836Z,98393.22
2022-08-26T05:20:44.574Z,98403.34
2022-08-26T05:23:13.046Z,98397.47
2022-08-26T05:25:41.983Z,98396.88
2022-08-26T05:28:10.316Z,98402.25
2022-08-26T05:30:39.837Z,98401.22
2022-08-26T05:33:08.940Z,98401.59
2022-08-26T05:35:39.400Z,98407.91
2022-08-26T05:38:12.502Z,98405.84
2022-08-26T05:40:43.011Z,98413.56
2022-08-26T05:43:11.234Z,98413.91
2022-08-26T05:45:44.869Z,98413.81
2022-08-26T05:48:15.546Z,98411.06
2022-08-26T05:50:47.425Z,98415.56
2022-08-26T05:53:17.610Z,98417.91
2022-08-26T05:55:47.772Z,98425.44
2022-08-26T05:58:17.375Z,98420.28
2022-08-26T06:00:45.612Z,98420.16
2022-08-26T06:03:13.541Z,98428.88
2022-08-26T06:05:41.797Z,98427.09
2022-08-26T06:08:15.005Z,98431.78
2022-08-26T06:10:50.989Z,98425.31
2022-08-26T06:13:21.514Z,98435.06
2022-08-26T06:15:51.149Z,98437.91
2022-08-26T06:18:22.059Z,98429.09
2022-08-26T06:20:57.830Z,98436.75
2022-08-26T06:23:47.153Z,98435.31
2022-08-26T06:26:18.018Z,98443.72
2022-08-26T06:28:46.199Z,98445.00
2022-08-26T06:31:15.365Z,98449.38
2022-08-26T06:33:43.668Z,98441.25
2022-08-26T06:36:17.141Z,98438.06
2022-08-26T06:38:48.582Z,98431.53
2022-08-26T06:41:16.940Z,98435.41
2022-08-26T06:43:45.572Z,98441.38
2022-08-26T06:46:16.437Z,98440.75
2022-08-26T06:48:44.878Z,98445.53
2022-08-26T06:51:14.888Z,98448.09
2022-08-26T06:53:45.531Z,98449.44
2022-08-26T06:56:16.458Z,98449.88
2022-08-26T06:58:44.674Z,98449.56
2022-08-26T07:01:18.218Z,98453.06
2022-08-26T07:03:48.064Z,98443.13
2022-08-26T07:06:18.474Z,98462.13
2022-08-26T07:08:46.574Z,98452.94
2022-08-26T07:11:17.316Z,98452.88
2022-08-26T07:13:45.115Z,98448.88
2022-08-26T07:16:16.336Z,98455.94
2022-08-26T07:18:45.133Z,98466.78
2022-08-26T07:21:16.574Z,98460.16
2022-08-26T07:23:48.900Z,98460.00
2022-08-26T07:26:21.859Z,98461.06
2022-08-26T07:28:54.944Z,98452.53
2022-08-26T07:31:24.623Z,98454.88
2022-08-26T07:33:52.969Z,98458.28
2022-08-26T07:36:22.293Z,98458.03
2022-08-26T07:38:50.741Z,98455.38
2022-08-26T07:41:22.826Z,98461.06
2022-08-26T07:43:51.155Z,98459.00
2022-08-26T07:46:20.750Z,98460.75
2022-08-26T07:48:55.465Z,98455.28
2022-08-26T07:51:23.653Z,98461.59
2022-08-26T07:53:54.169Z,98463.31
2022-08-26T07:56:23.622Z,98453.16
2022-08-26T07:58:53.487Z,98462.25
2022-08-26T08:01:21.919Z,98459.09
2022-08-26T08:03:51.551Z,98458.78
2022-08-26T08:06:20.314Z,98453.22
2022-08-26T08:08:48.258Z,98453.47
2022-08-26T08:11:20.422Z,98460.22
2022-08-26T08:13:56.170Z,98456.72
2022-08-26T08:16:26.100Z,98455.34
2022-08-26T08:18:54.682Z,98448.50
2022-08-26T08:21:24.324Z,98454.78
2022-08-26T08:23:53.571Z,98457.88
2022-08-26T08:26:21.949Z,98458.81
2022-08-26T08:28:51.815Z,98456.88
2022-08-26T08:31:38.780Z,98454.09
2022-08-26T08:34:09.467Z,98446.91
2022-08-26T08:36:37.261Z,98454.09
2022-08-26T08:39:06.478Z,98462.97
2022-08-26T08:41:45.485Z,98454.09
2022-08-26T08:44:20.776Z,98452.31
2022-08-26T08:46:55.672Z,98453.25
2022-08-26T08:49:26.087Z,98440.25
2022-08-26T08:51:58.644Z,98447.28
2022-08-26T08:54:29.052Z,98443.38
2022-08-26T08:57:03.889Z,98446.28
2022-08-26T08:59:38.410Z,98439.41
2022-08-26T09:02:16.286Z,98450.94
2022-08-26T09:05:10.152Z,98449.44
2022-08-26T09:07:47.230Z,98447.97
2022-08-26T09:10:32.191Z,98439.63
2022-08-26T09:13:00.994Z,98443.34
2022-08-26T09:15:40.474Z,98443.56
2022-08-26T09:18:17.560Z,98443.72
2022-08-26T09:20:53.595Z,98432.50
2022-08-26T09:23:21.579Z,98435.75
2022-08-26T09:25:51.995Z,98431.63
2022-08-26T09:28:22.970Z,98438.91
2022-08-26T09:31:08.025Z,98446.78
2022-08-26T09:33:40.177Z,98425.91
2022-08-26T09:36:26.194Z,98432.00
2022-08-26T09:38:55.096Z,98432.28
2022-08-26T09:41:27.619Z,98430.88
2022-08-26T09:44:14.420Z,98428.22
2022-08-26T09:46:48.316Z,98416.75
2022-08-26T09:49:26.229Z,98408.53
2022-08-26T09:52:21.025Z,98409.81
2022-08-26T09:55:03.424Z,98396.19
2022-08-26T09:57:33.945Z,98390.59
2022-08-26T10:00:03.249Z,98381.97
2022-08-26T10:02:47.742Z,98380.25
2022-08-26T10:05:20.139Z,98388.66
2022-08-26T10:07:51.669Z,98379.41
2022-08-26T10:10:23.963Z,98381.72
2022-08-26T10:12:59.312Z,98384.31
2022-08-26T10:15:29.005Z,98380.63
2022-08-26T10:18:05.468Z,98372.09
2022-08-26T10:20:37.144Z,98367.34
2022-08-26T10:23:12.930Z,98361.66
2022-08-26T10:25:48.432Z,98372.78
2022-08-26T10:28:26.527Z,98374.09
2022-08-26T10:31:01.051Z,98372.09
2022-08-26T10:33:30.272Z,98369.41
2022-08-26T10:36:04.227Z,98370.19
2022-08-26T10:38:35.650Z,98364.97
2022-08-26T10:41:11.080Z,98363.63
2022-08-26T10:43:44.014Z,98356.72
2022-08-26T10:46:17.109Z,98350.34
2022-08-26T10:48:50.176Z,98342.31
2022-08-26T10:51:24.133Z,98349.31
2022-08-26T10:53:58.135Z,98339.09
2022-08-26T10:56:41.187Z,98334.38
2022-08-26T10:59:20.976Z,98336.78
2022-08-26T11:01:56.265Z,98339.50
2022-08-26T11:04:37.407Z,98331.31
2022-08-26T11:07:35.034Z,98321.91
2022-08-26T11:10:06.754Z,98311.13
2022-08-26T11:12:52.558Z,98310.31
2022-08-26T11:16:01.175Z,98316.31
2022-08-26T11:18:46.736Z,98312.25
2022-08-26T11:21:51.985Z,98313.09
2022-08-26T11:24:42.099Z,98307.91
2022-08-26T11:27:22.584Z,98309.94
2022-08-26T11:30:02.087Z,98303.13
2022-08-26T11:32:49.198Z,98297.25
2022-08-26T11:35:47.095Z,98298.06
2022-08-26T11:38:22.951Z,98293.56
2022-08-26T11:41:09.961Z,98286.25
2022-08-26T11:43:40.888Z,98282.88
2022-08-26T11:46:11.509Z,98273.06
2022-08-26T11:48:42.384Z,98278.63
2022-08-26T11:51:13.468Z,98274.19
2022-08-26T11:53:47.247Z,98271.16
2022-08-26T11:56:25.486Z,98274.34
2022-08-26T11:58:57.954Z,98286.72
2022-08-26T12:01:31.336Z,98285.34
2022-08-26T12:04:01.323Z,98296.00
2022-08-26T12:06:31.711Z,98305.97
2022-08-26T12:09:03.804Z,98309.06
2022-08-26T12:11:36.342Z,98301.38
2022-08-26T12:14:08.143Z,98295.19
2022-08-26T12:16:38.871Z,98285.97
2022-08-26T12:19:26.327Z,98281.59
2022-08-26T12:22:03.258Z,98269.03
2022-08-26T12:24:32.627Z,98266.72
2022-08-26T12:27:14.338Z,98268.91
2022-08-26T12:29:42.766Z,98271.44
2022-08-26T12:32:19.323Z,98275.56
2022-08-26T12:34:49.903Z,98293.75
2022-08-26T12:37:18.967Z,98271.97
2022-08-26T12:39:49.017Z,98275.88
2022-08-26T12:42:40.625Z,98297.44
2022-08-26T12:45:09.681Z,98293.31
2022-08-26T12:47:43.572Z,98290.44
2022-08-26T12:50:18.574Z,98282.84
2022-08-26T12:52:57.022Z,98283.22
2022-08-26T12:55:36.832Z,98281.22
2022-08-26T12:58:23.414Z,98284.25
2022-08-26T13:00:52.673Z,98275.59
2022-08-26T13:03:47.542Z,98282.09
2022-08-26T13:06:25.777Z,98274.69
2022-08-26T13:08:55.633Z,98266.06
2022-08-26T13:11:27.109Z,98253.94
2022-08-26T13:14:01.080Z,98255.25
2022-08-26T13:16:30.330Z,98252.78
2022-08-26T13:19:01.807Z,98254.75
2022-08-26T13:21:37.485Z,98247.53
2022-08-26T13:24:11.637Z,98243.59
2022-08-26T13:26:44.341Z,98244.38
2022-08-26T13:29:12.905Z,98232.81
2022-08-26T13:31:43.728Z,98226.66
2022-08-26T13:34:15.323Z,98223.59
2022-08-26T13:36:45.045Z,98221.69
2022-08-26T13:39:13.550Z,98217.59
2022-08-26T13:41:43.219Z,98225.41
2022-08-26T13:44:14.544Z,98230.53
2022-08-26T13:46:42.804Z,98224.81
2022-08-26T13:49:11.417Z,98220.22
2022-08-26T13:51:39.815Z,98224.16
2022-08-26T13:54:08.047Z,98216.50
2022-08-26T13:56:37.372Z,98221.53
2022-08-26T13:59:06.942Z,98215.41
2022-08-26T14:01:36.184Z,98207.59
2022-08-26T14:04:04.854Z,98205.09
2022-08-26T14:06:32.977Z,98206.78
2022-08-26T14:09:01.303Z,98206.47
2022-08-26T14:11:30.180Z,98201.50
2022-08-26T14:14:10.348Z,98198.09
2022-08-26T14:16:56.053Z,98184.25
2022-08-26T14:19:27.981Z,98186.03
2022-08-26T14:21:56.039Z,98179.66
2022-08-26T14:24:23.895Z,98172.91
2022-08-26T14:26:51.648Z,98176.84
2022-08-26T14:29:20.917Z,98190.41
2022-08-26T14:31:49.119Z,98184.91
2022-08-26T14:34:17.036Z,98183.81
2022-08-26T14:36:44.773Z,98183.69
2022-08-26T14:39:14.289Z,98182.34
2022-08-26T14:41:54.624Z,98185.69
2022-08-26T14:44:28.349Z,98170.75
2022-08-26T14:46:56.734Z,98160.09
2022-08-26T14:49:27.355Z,98147.47
2022-08-26T14:51:55.382Z,98155.75
2022-08-26T14:54:22.236Z,98163.06
2022-08-26T14:56:53.838Z,98163.34
2022-08-26T14:59:25.421Z,98159.78
2022-08-26T15:01:54.327Z,98159.88
2022-08-26T15:04:23.203Z,98164.53
2022-08-26T15:06:52.158Z,98177.16
2022-08-26T15:09:19.930Z,98171.88
2022-08-26T15:11:47.844Z,98176.34
2022-08-26T15:14:19.667Z,98194.91
2022-08-26T15:16:49.833Z,98181.69
2022-08-26T15:19:18.102Z,98185.34
2022-08-26T15:21:47.021Z,98172.34
2022-08-26T15:24:16.037Z,98167.44
2022-08-26T15:26:44.809Z,98172.44
2022-08-26T15:29:12.640Z,98174.78
2022-08-26T15:31:40.501Z,98187.03
2022-08-26T15:34:16.417Z,98197.72
2022-08-26T15:36:46.134Z,98197.50
2022-08-26T15:39:15.872Z,98208.16
2022-08-26T15:41:44.445Z,98213.78
2022-08-26T15:44:13.925Z,98200.28
2022-08-26T15:46:42.099Z,98192.53
2022-08-26T15:49:12.042Z,98214.25
2022-08-26T15:51:48.089Z,98198.28
2022-08-26T15:54:17.720Z,98198.28
2022-08-26T15:56:45.734Z,98219.88
2022-08-26T15:59:16.166Z,98227.19
2022-08-26T16:01:44.336Z,98249.84
2022-08-26T16:04:13.942Z,98256.59
2022-08-26T16:06:43.397Z,98271.19
2022-08-26T16:09:11.645Z,98288.47
2022-08-26T16:11:40.342Z,98318.63
2022-08-26T16:14:08.768Z,98303.03
2022-08-26T16:16:39.219Z,98298.41
2022-08-26T16:19:07.719Z,98307.84
2022-08-26T16:21:37.236Z,98324.19
2022-08-26T16:24:06.223Z,98308.56
2022-08-26T16:26:36.553Z,98332.31
2022-08-26T16:29:08.087Z,98330.84
2022-08-26T16:31:37.125Z,98322.16
2022-08-26T16:34:05.470Z,98330.19
2022-08-26T16:36:33.713Z,98340.78
2022-08-26T16:39:03.369Z,98344.50
2022-08-26T16:41:32.704Z,98344.50
2022-08-26T16:44:01.746Z,98343.25
2022-08-26T16:46:30.673Z,98344.13
2022-08-26T16:48:59.704Z,98323.19
2022-08-26T16:51:28.997Z,98324.53
2022-08-26T16:53:58.817Z,98336.41
2022-08-26T16:56:33.592Z,98330.47
2022-08-26T16:59:08.240Z,98337.31
2022-08-26T17:01:39.800Z,98359.59
2022-08-26T17:04:08.909Z,98368.25
2022-08-26T17:06:39.131Z,98367.84
2022-08-26T17:09:08.719Z,98358.53
2022-08-26T17:11:37.953Z,98370.31
2022-08-26T17:14:06.662Z,98381.09
2022-08-26T17:16:34.844Z,98383.44
2022-08-26T17:19:04.446Z,98393.53
2022-08-26T17:21:35.522Z,98396.09
2022-08-26T17:24:03.981Z,98406.03
2022-08-26T17:26:31.910Z,98413.69
2022-08-26T17:29:01.165Z,98402.25
2022-08-26T17:31:29.023Z,98401.97
2022-08-26T17:33:56.842Z,98415.41
2022-08-26T17:36:28.488Z,98410.59
2022-08-26T17:38:57.243Z,98418.63
2022-08-26T17:41:25.344Z,98427.03
2022-08-26T17:43:53.194Z,98431.59
2022-08-26T17:46:22.561Z,98432.22
2022-08-26T17:48:50.516Z,98426.09
2022-08-26T17:51:20.155Z,98427.63
2022-08-26T17:53:48.932Z,98415.75
2022-08-26T17:56:19.378Z,98411.00
2022-08-26T17:58:51.221Z,98411.66
2022-08-26T18:01:20.076Z,98405.34
2022-08-26T18:03:54.690Z,98398.00
2022-08-26T18:06:25.533Z,98388.78
2022-08-26T18:08:53.568Z,98376.94
2022-08-26T18:11:24.443Z,98363.25
2022-08-26T18:13:52.411Z,98361.59
2022-08-26T18:16:23.309Z,98361.59
2022-08-26T18:18:53.418Z,98365.66
2022-08-26T18:21:23.350Z,98371.44
2022-08-26T18:23:52.659Z,98362.88
2022-08-26T18:26:22.556Z,98372.09
2022-08-26T18:28:53.413Z,98415.97
2022-08-26T18:31:21.762Z,98411.84
2022-08-26T18:33:50.028Z,98417.09
2022-08-26T18:36:22.025Z,98419.34
2022-08-26T18:38:51.257Z,98420.47
2022-08-26T18:41:22.845Z,98437.56
2022-08-26T18:43:53.132Z,98450.78
2022-08-26T18:46:22.654Z,98458.94
2022-08-26T18:48:50.921Z,98474.25
2022-08-26T18:51:25.619Z,98476.75
2022-08-26T18:53:53.750Z,98473.59
2022-08-26T18:56:21.554Z,98482.84
2022-08-26T18:58:49.762Z,98470.19
2022-08-26T19:01:18.807Z,98465.84
2022-08-26T19:03:47.753Z,98471.75
2022-08-26T19:06:17.268Z,98469.78
2022-08-26T19:08:49.831Z,98465.19
2022-08-26T19:11:32.324Z,98464.88
2022-08-26T19:14:07.538Z,98466.22
2022-08-26T19:16:35.631Z,98477.63
2022-08-26T19:19:04.104Z,98486.81
2022-08-26T19:21:33.689Z,98489.13
2022-08-26T19:24:06.206Z,98488.44
2022-08-26T19:26:34.963Z,98486.31
2022-08-26T19:29:03.157Z,98488.19
2022-08-26T19:31:31.236Z,98486.63
2022-08-26T19:33:59.458Z,98482.09
2022-08-26T19:36:28.327Z,98471.72
2022-08-26T19:38:56.830Z,98467.84
2022-08-26T19:41:36.695Z,98480.47
2022-08-26T19:44:07.734Z,98480.97
2022-08-26T19:46:36.308Z,98480.88
2022-08-26T19:49:04.256Z,98482.81
2022-08-26T19:51:33.946Z,98479.75
2022-08-26T19:54:02.671Z,98484.06
2022-08-26T19:56:31.983Z,98478.34
2022-08-26T19:58:59.785Z,98474.59
2022-08-26T20:01:27.553Z,98480.28
2022-08-26T20:06:28.151Z,98482.81
2022-08-26T20:08:56.196Z,98490.97
2022-08-26T20:11:24.980Z,98486.19
2022-08-26T20:13:55.197Z,98483.50
2022-08-26T20:16:23.020Z,98484.53
2022-08-26T20:19:08.554Z,98485.84
2022-08-26T20:21:38.140Z,98481.00
2022-08-26T20:24:09.444Z,98471.53
2022-08-26T20:26:40.080Z,98466.16
2022-08-26T20:29:14.168Z,98458.66
2022-08-26T20:31:43.937Z,98467.22
2022-08-26T20:34:13.212Z,98467.94
2022-08-26T20:36:42.532Z,98466.28
2022-08-26T20:39:11.682Z,98474.22
2022-08-26T20:41:40.404Z,98466.56
2022-08-26T20:44:09.352Z,98475.25
2022-08-26T20:46:38.764Z,98485.81
2022-08-26T20:49:07.481Z,98496.94
2022-08-26T20:51:37.216Z,98502.16
2022-08-26T20:54:06.394Z,98510.06
2022-08-26T20:56:34.662Z,98520.53
2022-08-26T20:59:03.377Z,98512.53
2022-08-26T21:01:34.723Z,98518.13
2022-08-26T21:04:06.593Z,98519.34
2022-08-26T21:06:34.825Z,98511.13
2022-08-26T21:09:03.419Z,98516.03
2022-08-26T21:11:32.064Z,98517.13
2022-08-26T21:14:16.276Z,98514.84
2022-08-26T21:16:47.078Z,98519.78
2022-08-26T21:19:19.325Z,98517.47
2022-08-26T21:21:48.455Z,98511.28
2022-08-26T21:24:16.834Z,98511.09
2022-08-26T21:26:44.926Z,98501.19
2022-08-26T21:29:13.635Z,98505.16
2022-08-26T21:31:46.078Z,98518.44
2022-08-26T21:34:18.212Z,98521.84
2022-08-26T21:36:46.483Z,98525.56
2022-08-26T21:39:15.004Z,98524.06
2022-08-26T21:41:44.115Z,98515.00
2022-08-26T21:44:13.532Z,98509.94
2022-08-26T21:46:42.105Z,98514.19
2022-08-26T21:49:12.282Z,98528.88
2022-08-26T21:51:45.108Z,98525.44
2022-08-26T21:54:14.497Z,98535.88
2022-08-26T21:56:46.522Z,98532.75
2022-08-26T21:59:15.693Z,98531.44
2022-08-26T22:01:43.566Z,98534.06
2022-08-26T22:04:11.737Z,98526.31
2022-08-26T22:06:48.207Z,98533.16
2022-08-26T22:09:20.124Z,98531.31
2022-08-26T22:11:48.270Z,98525.47
2022-08-26T22:14:17.926Z,98527.56
2022-08-26T22:16:50.547Z,98532.38
2022-08-26T22:19:19.851Z,98530.28
2022-08-26T22:21:50.742Z,98539.19
2022-08-26T22:24:19.206Z,98539.19
2022-08-26T22:26:48.079Z,98529.63
2022-08-26T22:29:18.610Z,98539.81
2022-08-26T22:31:47.211Z,98534.06
2022-08-26T22:34:17.302Z,98531.16
2022-08-26T22:36:47.769Z,98531.97
2022-08-26T22:39:19.394Z,98531.97
2022-08-26T22:41:48.475Z,98528.84
2022-08-26T22:44:17.176Z,98542.09
2022-08-26T22:46:45.522Z,98536.72
2022-08-26T22:49:16.668Z,98540.94
2022-08-26T22:51:45.125Z,98545.16
2022-08-26T22:54:13.389Z,98549.53
2022-08-26T22:56:43.320Z,98553.16
2022-08-26T22:59:11.794Z,98548.25
2022-08-26T23:01:42.053Z,98543.75
2022-08-26T23:04:10.949Z,98544.03
2022-08-26T23:06:41.729Z,98547.06
2022-08-26T23:09:10.559Z,98550.56
2022-08-26T23:11:39.760Z,98553.53
2022-08-26T23:14:12.009Z,98549.53
2022-08-26T23:16:41.793Z,98541.03
2022-08-26T23:19:10.385Z,98544.38
2022-08-26T23:21:38.857Z,98550.38
2022-08-26T23:24:07.206Z,98547.66
2022-08-26T23:26:35.706Z,98552.00
2022-08-26T23:29:06.394Z,98550.13
2022-08-26T23:31:37.100Z,98543.41
2022-08-26T23:34:22.688Z,98548.03
2022-08-26T23:36:52.604Z,98545.41
2022-08-26T23:39:21.653Z,98531.41
2022-08-26T23:41:49.674Z,98516.59
2022-08-26T23:44:17.501Z,98520.31
2022-08-26T23:46:46.739Z,98511.16
2022-08-26T23:49:14.548Z,98507.72
2022-08-26T23:52:00.192Z,98504.63
2022-08-26T23:54:28.114Z,98516.69
2022-08-26T23:56:55.913Z,98508.59
2022-08-26T23:59:23.837Z,98507.25
